createdAt,value
2017-09-26T04:43:35.167Z,2
2017-09-26T04:49:09.786Z,5
2017-09-26T04:52:43.363Z,8
2017-09-26T04:54:45.217Z,10
2017-09-26T04:55:46.157Z,13
2017-09-26T04:56:47.057Z,15
2017-09-26T04:57:17.031Z,17
2017-09-26T04:58:17.989Z,20
2017-09-26T04:59:18.923Z,22
2017-09-26T04:59:49.749Z,25
2017-09-26T05:00:19.782Z,28
2017-09-26T05:01:51.689Z,30
2017-09-26T05:03:22.555Z,32
2017-09-26T05:03:53.441Z,37
2017-09-26T05:04:23.449Z,43
2017-09-26T05:04:54.354Z,47
2017-09-26T05:05:24.420Z,52
2017-09-26T05:05:55.293Z,60
2017-09-26T05:06:25.381Z,67
2017-09-26T05:06:56.235Z,75
2017-09-26T05:07:26.200Z,80
2017-09-26T05:07:57.162Z,83
2017-09-26T05:08:27.175Z,88
2017-09-26T05:08:58.047Z,92
2017-09-26T05:09:28.101Z,98
2017-09-26T05:09:58.915Z,105
2017-09-26T05:10:28.946Z,110
2017-09-26T05:10:59.880Z,112
2017-09-26T05:11:29.923Z,107
2017-09-26T05:12:00.754Z,103
2017-09-26T05:12:30.843Z,100
2017-09-26T05:13:01.685Z,98
2017-09-26T05:13:31.722Z,95
2017-09-26T05:14:02.625Z,98
2017-09-26T05:15:33.617Z,100
2017-09-26T05:16:04.496Z,110
2017-09-26T05:16:34.530Z,120
2017-09-26T05:17:05.454Z,130
2017-09-26T05:17:35.457Z,137
2017-09-26T05:18:06.325Z,140
2017-09-26T05:19:37.309Z,145
2017-09-26T05:20:08.197Z,152
2017-09-26T05:20:38.215Z,160
2017-09-26T05:21:39.118Z,152
2017-09-26T05:22:10.017Z,148
2017-09-26T05:22:40.029Z,155
2017-09-26T05:23:10.914Z,172
2017-09-26T05:23:40.932Z,197
2017-09-26T05:24:11.869Z,218
2017-09-26T05:24:41.887Z,227
2017-09-26T05:25:12.787Z,230
2017-09-26T05:25:42.814Z,242
2017-09-26T05:26:13.645Z,265
2017-09-26T05:26:43.717Z,298
2017-09-26T05:27:14.599Z,328
2017-09-26T05:27:44.614Z,355
2017-09-26T05:28:15.509Z,370
2017-09-26T05:28:45.531Z,375
2017-09-26T05:29:16.508Z,385
2017-09-26T05:29:46.526Z,405
2017-09-26T05:30:17.359Z,422
2017-09-26T05:30:47.376Z,445
2017-09-26T05:31:18.322Z,473
2017-09-26T05:31:48.287Z,495
2017-09-26T05:32:19.287Z,520
2017-09-26T05:32:49.361Z,545
2017-09-26T05:33:20.110Z,572
2017-09-26T05:33:50.145Z,595
2017-09-26T05:34:21.040Z,615
2017-09-26T05:34:51.090Z,630
2017-09-26T05:35:22.003Z,635
2017-09-26T05:35:52.033Z,637
2017-09-26T05:36:52.927Z,640
2017-09-26T05:37:23.944Z,650
2017-09-26T05:37:53.882Z,662
2017-09-26T05:38:24.765Z,677
2017-09-26T05:38:54.773Z,685
2017-09-26T05:39:25.672Z,692
2017-09-26T05:40:56.642Z,690
2017-09-26T05:41:27.532Z,685
2017-09-26T05:41:57.499Z,677
2017-09-26T05:42:28.468Z,665
2017-09-26T05:42:58.437Z,653
2017-09-26T05:43:29.345Z,640
2017-09-26T05:43:59.355Z,630
2017-09-26T05:44:30.277Z,608
2017-09-26T05:45:00.673Z,587
2017-09-26T05:45:31.230Z,568
2017-09-26T05:46:01.207Z,550
2017-09-26T05:46:32.125Z,545
2017-09-26T05:47:02.115Z,553
2017-09-26T05:47:33.088Z,565
2017-09-26T05:48:03.036Z,590
2017-09-26T05:48:33.973Z,628
2017-09-26T05:49:03.941Z,660
2017-09-26T05:49:34.835Z,698
2017-09-26T05:50:04.868Z,740
2017-09-26T05:50:35.819Z,782
2017-09-26T05:51:05.847Z,805
2017-09-26T05:52:06.738Z,787
2017-09-26T05:52:37.735Z,763
2017-09-26T05:53:07.639Z,742
2017-09-26T05:53:38.592Z,730
2017-09-26T05:54:08.644Z,728
2017-09-26T05:55:09.543Z,712
2017-09-26T05:55:40.403Z,685
2017-09-26T05:56:10.497Z,645
2017-09-26T05:56:41.330Z,617
2017-09-26T05:57:11.414Z,598
2017-09-26T05:57:42.319Z,595
2017-09-26T05:58:12.237Z,620
2017-09-26T05:58:43.200Z,647
2017-09-26T05:59:13.243Z,667
2017-09-26T05:59:44.101Z,662
2017-09-26T06:00:14.114Z,640
2017-09-26T06:00:45.028Z,630
2017-09-26T06:01:15.120Z,647
2017-09-26T06:01:45.971Z,692
2017-09-26T06:02:16.017Z,725
2017-09-26T06:02:46.857Z,760
2017-09-26T06:03:16.890Z,795
2017-09-26T06:03:47.822Z,835
2017-09-26T06:04:17.797Z,885
2017-09-26T06:04:48.661Z,923
2017-09-26T06:05:18.769Z,935
2017-09-26T06:05:49.622Z,947
2017-09-26T06:06:19.679Z,958
2017-09-26T06:06:50.504Z,967
2017-09-26T06:07:20.525Z,990
2017-09-26T06:07:51.481Z,1022
2017-09-26T06:08:21.456Z,1055
2017-09-26T06:08:52.359Z,1093
2017-09-26T06:09:22.367Z,1120
2017-09-26T06:09:53.272Z,1140
2017-09-26T06:10:23.328Z,1150
2017-09-26T06:10:54.197Z,1140
2017-09-26T06:11:24.252Z,1110
2017-09-26T06:11:55.143Z,1058
2017-09-26T06:12:25.202Z,1007
2017-09-26T06:12:56.056Z,983
2017-09-26T06:13:26.042Z,965
2017-09-26T06:13:57.007Z,950
2017-09-26T06:14:27.034Z,952
2017-09-26T06:14:57.899Z,975
2017-09-26T06:15:58.807Z,952
2017-09-26T06:16:28.846Z,917
2017-09-26T06:16:59.796Z,895
2017-09-26T06:17:29.832Z,910
2017-09-26T06:18:00.729Z,975
2017-09-26T06:18:30.693Z,1022
2017-09-26T06:19:01.570Z,1045
2017-09-26T06:19:31.617Z,1025
2017-09-26T06:20:02.521Z,985
2017-09-26T06:22:04.314Z,925
2017-09-26T06:22:34.360Z,880
2017-09-26T06:23:05.262Z,935
2017-09-26T06:23:35.243Z,1022
2017-09-26T06:24:06.146Z,1040
2017-09-26T06:24:36.183Z,1022
2017-09-26T06:25:07.050Z,1007
2017-09-26T06:25:37.107Z,1037
2017-09-26T06:26:07.972Z,1070
2017-09-26T06:26:37.988Z,1130
2017-09-26T06:27:08.883Z,1153
2017-09-26T06:27:38.922Z,1145
2017-09-26T06:28:09.851Z,1190
2017-09-26T06:28:39.822Z,1252
2017-09-26T06:29:10.724Z,1277
2017-09-26T06:29:40.764Z,1280
2017-09-26T06:30:11.628Z,1275
2017-09-26T06:30:41.702Z,1247
2017-09-26T06:31:12.559Z,1205
2017-09-26T06:31:42.598Z,1183
2017-09-26T06:32:13.412Z,1202
2017-09-26T06:32:43.495Z,1223
2017-09-26T06:33:14.459Z,1187
2017-09-26T06:33:44.464Z,1133
2017-09-26T06:34:15.299Z,1120
2017-09-26T06:34:45.380Z,1150
2017-09-26T06:35:16.173Z,1193
2017-09-26T06:35:46.293Z,1202
2017-09-26T06:36:17.088Z,1187
2017-09-26T06:36:47.136Z,1172
2017-09-26T06:37:18.076Z,1207
2017-09-26T06:37:48.077Z,1237
2017-09-26T06:38:19.018Z,1247
2017-09-26T06:39:19.835Z,1245
2017-09-26T06:39:49.884Z,1232
2017-09-26T06:40:20.826Z,1225
2017-09-26T06:40:50.883Z,1265
2017-09-26T06:41:21.723Z,1340
2017-09-26T06:41:51.758Z,1460
2017-09-26T06:42:22.735Z,1562
2017-09-26T06:43:23.565Z,1585
2017-09-26T06:43:53.583Z,1645
2017-09-26T06:44:24.485Z,1730
2017-09-26T06:44:54.580Z,1787
2017-09-26T06:45:25.410Z,1855
2017-09-26T06:45:55.509Z,1982
2017-09-26T06:46:26.318Z,2140
2017-09-26T06:46:56.372Z,2275
2017-09-26T06:47:27.246Z,2400
2017-09-26T06:47:57.323Z,2490
2017-09-26T06:48:28.283Z,2535
2017-09-26T06:48:58.206Z,2545
2017-09-26T06:49:29.160Z,2530
2017-09-26T06:49:59.134Z,2512
2017-09-26T06:50:30.074Z,2525
2017-09-26T06:51:00.076Z,2498
2017-09-26T06:51:30.998Z,2435
2017-09-26T06:52:00.985Z,2360
2017-09-26T06:52:31.915Z,2295
2017-09-26T06:53:01.978Z,2200
2017-09-26T06:53:32.828Z,2113
2017-09-26T06:54:02.851Z,2098
2017-09-26T06:54:33.799Z,2123
2017-09-26T06:55:03.744Z,2150
2017-09-26T06:55:34.655Z,2175
2017-09-26T06:56:04.699Z,2225
2017-09-26T06:56:35.552Z,2308
2017-09-26T06:57:05.623Z,2392
2017-09-26T06:57:36.530Z,2473
2017-09-26T06:58:06.572Z,2572
2017-09-26T06:58:37.493Z,2670
2017-09-26T06:59:07.469Z,2740
2017-09-26T06:59:38.315Z,2827
2017-09-26T07:00:08.412Z,2960
2017-09-26T07:00:39.297Z,3068
2017-09-26T07:01:09.278Z,3095
2017-09-26T07:01:40.219Z,3037
2017-09-26T07:02:10.267Z,2930
2017-09-26T07:02:41.114Z,2912
2017-09-26T07:03:11.117Z,2987
2017-09-26T07:03:42.021Z,3023
2017-09-26T07:04:12.075Z,3025
2017-09-26T07:04:42.982Z,3000
2017-09-26T07:05:12.965Z,2987
2017-09-26T07:05:43.819Z,3017
2017-09-26T07:06:13.891Z,3090
2017-09-26T07:06:44.788Z,3088
2017-09-26T07:07:14.839Z,2972
2017-09-26T07:07:45.657Z,2820
2017-09-26T07:08:15.736Z,2668
2017-09-26T07:08:46.660Z,2520
2017-09-26T07:09:16.605Z,2465
2017-09-26T07:09:47.544Z,2503
2017-09-26T07:10:17.553Z,2510
2017-09-26T07:10:48.422Z,2460
2017-09-26T07:11:18.509Z,2428
2017-09-26T07:11:49.373Z,2415
2017-09-26T07:12:19.418Z,2407
2017-09-26T07:12:50.285Z,2410
2017-09-26T07:13:20.323Z,2505
2017-09-26T07:13:51.196Z,2687
2017-09-26T07:14:21.266Z,2732
2017-09-26T07:14:52.119Z,2790
2017-09-26T07:15:22.187Z,2873
2017-09-26T07:15:53.011Z,3068
2017-09-26T07:16:23.036Z,3490
2017-09-26T07:16:53.945Z,3973
2017-09-26T07:17:23.999Z,4250
2017-09-26T07:17:54.826Z,4315
2017-09-26T07:18:25.026Z,4187
2017-09-26T07:18:55.753Z,3983
2017-09-26T07:19:25.792Z,3808
2017-09-26T07:19:56.686Z,3682
2017-09-26T07:20:26.684Z,3560
2017-09-26T07:20:57.612Z,3415
2017-09-26T07:21:27.615Z,3270
2017-09-26T07:21:58.526Z,3125
2017-09-26T07:22:28.538Z,2972
2017-09-26T07:22:59.429Z,2770
2017-09-26T07:23:29.481Z,2595
2017-09-26T07:24:00.626Z,2467
2017-09-26T07:24:30.370Z,2385
2017-09-26T07:25:01.315Z,2347
2017-09-26T07:25:31.347Z,2360
2017-09-26T07:26:02.268Z,2368
2017-09-26T07:26:32.203Z,2330
2017-09-26T07:27:03.157Z,2297
2017-09-26T07:27:33.154Z,2308
2017-09-26T07:28:03.995Z,2335
2017-09-26T07:28:34.152Z,2357
2017-09-26T07:29:04.938Z,2360
2017-09-26T07:29:34.955Z,2345
2017-09-26T07:30:05.899Z,2280
2017-09-26T07:30:35.926Z,2220
2017-09-26T07:31:06.774Z,2205
2017-09-26T07:31:36.837Z,2260
2017-09-26T07:32:07.666Z,2325
2017-09-26T07:32:37.689Z,2375
2017-09-26T07:33:08.594Z,2485
2017-09-26T07:33:38.786Z,2680
2017-09-26T07:34:09.498Z,2920
2017-09-26T07:34:39.536Z,3125
2017-09-26T07:35:10.422Z,3293
2017-09-26T07:35:40.418Z,3450
2017-09-26T07:36:11.352Z,3645
2017-09-26T07:36:41.383Z,3875
2017-09-26T07:37:12.239Z,4075
2017-09-26T07:37:42.306Z,4185
2017-09-26T07:38:13.172Z,4217
2017-09-26T07:38:43.256Z,4185
2017-09-26T07:39:14.088Z,4078
2017-09-26T07:39:44.117Z,3878
2017-09-26T07:40:14.980Z,3600
2017-09-26T07:40:44.980Z,3430
2017-09-26T07:41:15.905Z,3410
2017-09-26T07:41:45.953Z,3425
2017-09-26T07:42:16.793Z,3437
2017-09-26T07:42:46.982Z,3355
2017-09-26T07:43:17.757Z,3170
2017-09-26T07:43:47.848Z,3005
2017-09-26T07:44:18.697Z,2842
2017-09-26T07:44:48.768Z,2762
2017-09-26T07:45:49.628Z,2737
2017-09-26T07:46:20.470Z,2677
2017-09-26T07:46:50.575Z,2608
2017-09-26T07:47:21.472Z,2498
2017-09-26T07:47:51.470Z,2368
2017-09-26T07:48:22.330Z,2263
2017-09-26T07:48:52.676Z,2190
2017-09-26T07:49:23.242Z,2135
2017-09-26T07:49:53.319Z,2132
2017-09-26T07:50:24.162Z,2145
2017-09-26T07:50:54.266Z,2177
2017-09-26T07:51:25.139Z,2200
2017-09-26T07:51:55.123Z,2230
2017-09-26T07:52:26.092Z,2285
2017-09-26T07:52:56.045Z,2392
2017-09-26T07:53:27.032Z,2505
2017-09-26T07:53:57.182Z,2623
2017-09-26T07:54:27.913Z,2820
2017-09-26T07:54:57.950Z,3050
2017-09-26T07:55:28.843Z,3270
2017-09-26T07:55:58.898Z,3448
2017-09-26T07:56:29.800Z,3625
2017-09-26T07:56:59.840Z,3748
2017-09-26T07:57:30.713Z,3820
2017-09-26T07:58:00.726Z,3833
2017-09-26T07:58:31.630Z,3838
2017-09-26T07:59:01.713Z,3860
2017-09-26T07:59:32.538Z,3857
2017-09-26T08:00:02.550Z,3810
2017-09-26T08:00:33.429Z,3775
2017-09-26T08:01:03.521Z,3740
2017-09-26T08:01:34.355Z,3785
2017-09-26T08:02:04.458Z,3857
2017-09-26T08:02:35.257Z,3865
2017-09-26T08:03:05.283Z,3833
2017-09-26T08:03:36.247Z,3825
2017-09-26T08:04:06.312Z,3943
2017-09-26T08:04:37.082Z,4115
2017-09-26T08:05:07.163Z,4222
2017-09-26T08:05:37.982Z,4270
2017-09-26T08:06:08.039Z,4288
2017-09-26T08:06:38.907Z,4493
2017-09-26T08:07:08.931Z,4847
2017-09-26T08:07:39.852Z,5218
2017-09-26T08:08:09.914Z,5467
2017-09-26T08:08:40.727Z,5600
2017-09-26T08:09:10.836Z,5650
2017-09-26T08:09:41.669Z,5525
2017-09-26T08:10:11.746Z,5237
2017-09-26T08:10:42.590Z,4820
2017-09-26T08:11:12.653Z,4592
2017-09-26T08:11:43.547Z,4630
2017-09-26T08:12:13.549Z,4650
2017-09-26T08:12:44.445Z,4618
2017-09-26T08:13:14.514Z,4508
2017-09-26T08:13:45.353Z,4187
2017-09-26T08:14:15.452Z,3810
2017-09-26T08:14:46.265Z,3475
2017-09-26T08:15:16.313Z,3245
2017-09-26T08:15:47.143Z,3110
2017-09-26T08:16:17.233Z,3125
2017-09-26T08:16:48.109Z,3250
2017-09-26T08:17:18.159Z,3305
2017-09-26T08:17:49.026Z,3300
2017-09-26T08:18:19.071Z,3332
2017-09-26T08:18:49.911Z,3375
2017-09-26T08:19:20.154Z,3500
2017-09-26T08:19:50.845Z,3628
2017-09-26T08:20:20.910Z,3812
2017-09-26T08:20:51.794Z,4155
2017-09-26T08:21:21.824Z,4580
2017-09-26T08:21:52.691Z,4993
2017-09-26T08:22:22.702Z,5113
2017-09-26T08:22:53.617Z,5042
2017-09-26T08:23:23.626Z,4897
2017-09-26T08:23:54.516Z,4798
2017-09-26T08:24:24.614Z,4927
2017-09-26T08:24:55.450Z,5190
2017-09-26T08:25:25.467Z,5353
2017-09-26T08:25:56.303Z,5423
2017-09-26T08:26:26.337Z,5365
2017-09-26T08:26:57.254Z,5440
2017-09-26T08:27:27.326Z,5927
2017-09-26T08:27:58.238Z,6493
2017-09-26T08:28:28.234Z,6613
2017-09-26T08:28:59.053Z,6163
2017-09-26T08:29:29.149Z,5927
2017-09-26T08:30:00.004Z,6280
2017-09-26T08:30:30.032Z,6910
2017-09-26T08:31:00.879Z,7303
2017-09-26T08:31:30.965Z,7385
2017-09-26T08:32:01.784Z,7283
2017-09-26T08:32:31.825Z,7118
2017-09-26T08:33:02.793Z,7205
2017-09-26T08:33:32.934Z,7457
2017-09-26T08:34:03.709Z,7573
2017-09-26T08:34:33.794Z,7793
2017-09-26T08:35:04.633Z,7843
2017-09-26T08:35:34.647Z,7910
2017-09-26T08:36:05.542Z,7988
2017-09-26T08:36:35.566Z,7768
2017-09-26T08:37:06.445Z,7648
2017-09-26T08:37:36.527Z,7687
2017-09-26T08:38:07.414Z,7890
2017-09-26T08:38:37.421Z,8000
2017-09-26T08:39:08.270Z,7997
2017-09-26T08:39:38.810Z,8280
2017-09-26T08:40:09.189Z,8647
2017-09-26T08:40:39.236Z,8683
2017-09-26T08:41:10.078Z,8708
2017-09-26T08:41:40.187Z,9083
2017-09-26T08:42:11.059Z,9825
2017-09-26T08:42:41.039Z,10480
2017-09-26T08:43:11.951Z,10990
2017-09-26T08:43:41.957Z,11693
2017-09-26T08:44:12.854Z,12818
2017-09-26T08:44:42.924Z,13440
2017-09-26T08:45:13.769Z,13787
2017-09-26T08:45:43.783Z,13513
2017-09-26T08:46:14.735Z,12855
2017-09-26T08:46:44.690Z,12343
2017-09-26T08:47:15.622Z,12155
2017-09-26T08:47:45.650Z,11878
2017-09-26T08:48:16.327Z,11490
2017-09-26T08:48:46.380Z,11308
2017-09-26T08:49:17.248Z,11588
2017-09-26T08:49:47.359Z,11975
2017-09-26T08:50:18.156Z,12355
2017-09-26T08:50:48.221Z,12758
2017-09-26T08:51:19.086Z,13033
2017-09-26T08:51:49.149Z,13712
2017-09-26T08:52:20.070Z,12682
2017-09-26T08:52:50.033Z,11755
2017-09-26T08:53:20.937Z,10843
2017-09-26T08:53:50.978Z,10082
2017-09-26T08:54:21.856Z,9812
2017-09-26T08:54:51.974Z,9700
2017-09-26T08:55:22.758Z,9025
2017-09-26T08:55:52.767Z,8327
2017-09-26T08:56:23.687Z,7985
2017-09-26T08:56:53.716Z,7963
2017-09-26T08:57:24.644Z,7945
2017-09-26T08:57:54.674Z,8245
2017-09-26T08:58:25.541Z,8460
2017-09-26T08:58:55.532Z,8462
2017-09-26T08:59:26.461Z,8400
2017-09-26T08:59:56.524Z,8188
2017-09-26T09:00:27.366Z,7945
2017-09-26T09:00:57.380Z,7605
2017-09-26T09:01:28.300Z,7202
2017-09-26T09:01:58.298Z,6883
2017-09-26T09:02:29.207Z,6655
2017-09-26T09:02:59.273Z,6475
2017-09-26T09:03:30.152Z,6370
2017-09-26T09:04:00.205Z,6208
2017-09-26T09:04:31.078Z,5975
2017-09-26T09:05:01.091Z,5653
2017-09-26T09:05:31.941Z,5302
2017-09-26T09:06:02.007Z,5083
2017-09-26T09:06:32.908Z,4960
2017-09-26T09:07:02.957Z,4920
2017-09-26T09:07:33.787Z,5030
2017-09-26T09:08:03.836Z,5210
2017-09-26T09:08:34.676Z,5482
2017-09-26T09:09:04.702Z,5848
2017-09-26T09:09:35.654Z,6128
2017-09-26T09:10:05.720Z,6208
2017-09-26T09:10:36.554Z,6158
2017-09-26T09:11:06.610Z,6062
2017-09-26T09:11:37.441Z,5893
2017-09-26T09:12:07.571Z,5728
2017-09-26T09:12:38.385Z,5767
2017-09-26T09:13:08.397Z,5895
2017-09-26T09:13:39.314Z,5828
2017-09-26T09:14:09.366Z,5848
2017-09-26T09:14:40.282Z,6008
2017-09-26T09:15:10.330Z,6137
2017-09-26T09:15:41.173Z,6140
2017-09-26T09:16:11.212Z,5990
2017-09-26T09:16:42.074Z,5798
2017-09-26T09:17:12.144Z,5623
2017-09-26T09:17:42.993Z,5432
2017-09-26T09:18:13.046Z,5200
2017-09-26T09:18:43.873Z,5015
2017-09-26T09:19:14.165Z,5048
2017-09-26T09:19:44.793Z,5270
2017-09-26T09:20:15.015Z,5645
2017-09-26T09:20:45.734Z,5990
2017-09-26T09:21:15.719Z,6230
2017-09-26T09:21:46.614Z,6275
2017-09-26T09:22:16.710Z,6173
2017-09-26T09:22:47.555Z,5998
2017-09-26T09:23:17.591Z,5815
2017-09-26T09:23:48.466Z,5710
2017-09-26T09:24:49.439Z,5785
2017-09-26T09:25:19.453Z,5905
2017-09-26T09:25:50.305Z,5915
2017-09-26T09:26:20.328Z,5875
2017-09-26T09:26:51.186Z,5908
2017-09-26T09:27:21.264Z,5882
2017-09-26T09:27:52.098Z,5645
2017-09-26T09:28:22.190Z,5218
2017-09-26T09:28:53.003Z,4817
2017-09-26T09:29:23.046Z,4615
2017-09-26T09:29:53.912Z,4613
2017-09-26T09:30:24.008Z,4538
2017-09-26T09:30:54.860Z,4337
2017-09-26T09:31:24.915Z,4165
2017-09-26T09:31:55.770Z,4080
2017-09-26T09:32:25.884Z,4142
2017-09-26T09:32:56.694Z,4387
2017-09-26T09:33:26.682Z,4663
2017-09-26T09:33:57.661Z,4913
2017-09-26T09:34:27.684Z,5042
2017-09-26T09:34:58.548Z,5130
2017-09-26T09:35:28.612Z,5173
2017-09-26T09:35:59.474Z,5220
2017-09-26T09:36:29.515Z,5333
2017-09-26T09:37:00.772Z,5440
2017-09-26T09:37:30.439Z,5537
2017-09-26T09:38:01.285Z,5683
2017-09-26T09:38:31.317Z,5870
2017-09-26T09:39:02.234Z,6158
2017-09-26T09:39:32.283Z,6467
2017-09-26T09:40:03.182Z,6715
2017-09-26T09:40:33.206Z,6880
2017-09-26T09:41:04.074Z,7003
2017-09-26T09:41:34.111Z,7080
2017-09-26T09:42:04.957Z,7147
2017-09-26T09:42:34.985Z,7228
2017-09-26T09:43:05.914Z,7275
2017-09-26T09:43:35.975Z,7373
2017-09-26T09:44:06.834Z,7573
2017-09-26T09:44:36.851Z,7828
2017-09-26T09:45:07.756Z,8055
2017-09-26T09:45:37.755Z,8057
2017-09-26T09:46:08.653Z,8048
2017-09-26T09:46:38.720Z,8160
2017-09-26T09:47:09.617Z,8252
2017-09-26T09:47:39.620Z,8280
2017-09-26T09:48:10.485Z,8248
2017-09-26T09:48:40.478Z,8233
2017-09-26T09:49:11.434Z,8312
2017-09-26T09:49:41.464Z,8402
2017-09-26T09:50:12.353Z,8477
2017-09-26T09:50:42.366Z,8608
2017-09-26T09:51:13.222Z,8762
2017-09-26T09:51:43.250Z,8927
2017-09-26T09:52:14.170Z,9085
2017-09-26T09:52:44.141Z,9347
2017-09-26T09:53:15.065Z,9725
2017-09-26T09:53:45.128Z,10025
2017-09-26T09:54:15.984Z,10267
2017-09-26T09:54:46.056Z,10418
2017-09-26T09:55:16.885Z,10453
2017-09-26T09:55:46.904Z,10465
2017-09-26T09:56:17.832Z,10292
2017-09-26T09:56:47.894Z,10040
2017-09-26T09:57:18.754Z,10078
2017-09-26T09:57:48.819Z,10250
2017-09-26T09:58:19.650Z,10393
2017-09-26T09:58:49.699Z,10680
2017-09-26T09:59:20.600Z,11162
2017-09-26T09:59:50.645Z,11987
2017-09-26T10:00:21.545Z,12557
2017-09-26T10:00:51.528Z,12425
2017-09-26T10:01:22.429Z,11743
2017-09-26T10:01:52.444Z,10772
2017-09-26T10:02:23.364Z,9860
2017-09-26T10:02:53.385Z,9130
2017-09-26T10:03:24.220Z,8715
2017-09-26T10:03:54.432Z,8550
2017-09-26T10:04:25.139Z,8672
2017-09-26T10:04:55.235Z,9148
2017-09-26T10:05:26.050Z,10058
2017-09-26T10:05:56.090Z,13375
2017-09-26T10:06:27.005Z,11023
2017-09-26T10:06:57.096Z,11345
2017-09-26T10:07:27.926Z,11428
2017-09-26T10:07:57.968Z,11485
2017-09-26T10:08:28.807Z,11923
2017-09-26T10:08:58.848Z,13470
2017-09-26T10:09:29.748Z,15380
2017-09-26T10:09:59.818Z,15902
2017-09-26T10:10:30.692Z,15940
2017-09-26T10:11:00.731Z,14983
2017-09-26T10:11:31.557Z,13770
2017-09-26T10:12:01.608Z,13463
2017-09-26T10:12:32.514Z,13125
2017-09-26T10:13:02.499Z,13130
2017-09-26T10:13:33.243Z,13025
2017-09-26T10:14:03.289Z,12533
2017-09-26T10:14:34.155Z,12422
2017-09-26T10:15:04.217Z,12508
2017-09-26T10:15:36.571Z,12497
2017-09-26T10:16:05.074Z,12413
2017-09-26T10:16:36.020Z,12235
2017-09-26T10:17:06.060Z,11840
2017-09-26T10:17:36.956Z,11565
2017-09-26T10:18:06.964Z,11108
2017-09-26T10:18:37.795Z,10605
2017-09-26T10:19:07.823Z,10645
2017-09-26T10:19:38.709Z,11012
2017-09-26T10:20:08.793Z,10952
2017-09-26T10:20:39.656Z,10435
2017-09-26T10:21:09.682Z,9835
2017-09-26T10:21:40.589Z,9298
2017-09-26T10:22:10.602Z,9225
2017-09-26T10:22:41.503Z,9775
2017-09-26T10:23:11.553Z,10855
2017-09-26T10:23:42.421Z,12095
2017-09-26T10:24:12.491Z,13325
2017-09-26T10:24:43.392Z,14055
2017-09-26T10:25:13.394Z,14120
2017-09-26T10:25:44.076Z,14102
2017-09-26T10:26:14.120Z,13600
2017-09-26T10:26:44.985Z,12797
2017-09-26T10:27:15.050Z,11840
2017-09-26T10:27:45.900Z,11308
2017-09-26T10:28:15.901Z,11735
2017-09-26T10:28:46.863Z,13175
2017-09-26T10:29:16.828Z,14887
2017-09-26T10:29:47.774Z,16215
2017-09-26T10:30:17.784Z,16903
2017-09-26T10:30:48.711Z,17685
2017-09-26T10:31:18.749Z,19157
2017-09-26T10:31:49.563Z,20012
2017-09-26T10:32:19.613Z,21118
2017-09-26T10:32:50.513Z,22538
2017-09-26T10:33:20.584Z,22710
2017-09-26T10:33:51.421Z,22730
2017-09-26T10:34:21.452Z,23128
2017-09-26T10:34:52.379Z,24137
2017-09-26T10:35:22.391Z,23243
2017-09-26T10:35:53.282Z,24405
2017-09-26T10:36:23.283Z,24225
2017-09-26T10:36:54.205Z,26155
2017-09-26T10:37:24.209Z,29968
2017-09-26T10:37:55.100Z,27610
2017-09-26T10:38:25.138Z,26265
2017-09-26T10:38:56.008Z,31972
2017-09-26T10:39:26.001Z,35377
2017-09-26T10:39:56.960Z,35005
2017-09-26T10:40:26.957Z,33130
2017-09-26T10:40:57.823Z,26642
2017-09-26T10:41:27.882Z,26280
2017-09-26T10:41:58.726Z,22408
2017-09-26T10:42:28.742Z,16157
2017-09-26T10:42:59.655Z,15035
2017-09-26T10:43:29.710Z,19993
2017-09-26T10:44:00.781Z,27547
2017-09-26T10:44:30.626Z,19000
2017-09-26T10:45:01.470Z,14655
2017-09-26T10:45:31.550Z,13120
2017-09-26T10:46:02.351Z,12653
2017-09-26T10:46:32.462Z,12655
2017-09-26T10:47:03.321Z,12673
2017-09-26T10:47:33.359Z,12713
2017-09-26T10:48:04.252Z,12730
2017-09-26T10:48:34.267Z,12840
2017-09-26T10:49:05.147Z,12920
2017-09-26T10:49:35.184Z,12980
2017-09-26T10:50:06.079Z,13265
2017-09-26T10:50:36.109Z,13865
2017-09-26T10:51:07.006Z,15075
2017-09-26T10:51:37.054Z,19843
2017-09-26T10:52:07.934Z,23102
2017-09-26T10:52:37.963Z,26308
2017-09-26T10:53:08.775Z,28665
2017-09-26T10:53:38.864Z,28907
2017-09-26T10:54:09.750Z,28925
2017-09-26T10:54:39.737Z,26520
2017-09-26T10:55:10.618Z,33265
2017-09-26T10:55:40.654Z,29203
2017-09-26T10:56:11.552Z,23590
2017-09-26T10:56:41.577Z,19778
2017-09-26T10:57:12.479Z,18137
2017-09-26T10:57:42.518Z,17415
2017-09-26T10:58:13.387Z,17267
2017-09-26T10:58:43.430Z,18935
2017-09-26T10:59:14.268Z,24887
2017-09-26T10:59:44.365Z,27640
2017-09-26T11:00:15.257Z,22245
2017-09-26T11:00:45.287Z,20398
2017-09-26T11:01:16.094Z,19963
2017-09-26T11:01:46.183Z,19348
2017-09-26T11:02:17.015Z,19015
2017-09-26T11:02:47.043Z,18850
2017-09-26T11:03:17.960Z,19195
2017-09-26T11:03:47.966Z,19543
2017-09-26T11:04:18.877Z,19753
2017-09-26T11:04:48.960Z,20220
2017-09-26T11:05:19.901Z,20730
2017-09-26T11:05:49.866Z,21133
2017-09-26T11:06:20.685Z,22103
2017-09-26T11:06:50.778Z,23692
2017-09-26T11:07:21.679Z,29708
2017-09-26T11:07:51.688Z,36493
2017-09-26T11:08:22.557Z,37612
2017-09-26T11:08:52.614Z,39980
2017-09-26T11:09:23.436Z,39418
2017-09-26T11:09:53.534Z,39253
2017-09-26T11:10:24.420Z,39257
2017-09-26T11:10:54.460Z,38807
2017-09-26T11:11:25.298Z,38042
2017-09-26T11:11:55.347Z,37247
2017-09-26T11:12:26.190Z,36547
2017-09-26T11:12:56.277Z,36400
2017-09-26T11:13:27.131Z,22635
2017-09-26T11:13:57.185Z,18077
2017-09-26T11:14:28.053Z,16490
2017-09-26T11:14:58.127Z,16003
2017-09-26T11:15:28.927Z,15857
2017-09-26T11:15:58.966Z,16000
2017-09-26T11:16:29.872Z,25050
2017-09-26T11:16:59.866Z,24328
2017-09-26T11:17:30.786Z,30270
2017-09-26T11:18:00.784Z,20270
2017-09-26T11:18:31.690Z,15950
2017-09-26T11:19:01.725Z,15158
2017-09-26T11:19:32.618Z,16740
2017-09-26T11:20:02.709Z,14690
2017-09-26T11:20:33.535Z,14597
2017-09-26T11:21:03.600Z,14665
2017-09-26T11:21:34.454Z,16477
2017-09-26T11:22:04.468Z,16097
2017-09-26T11:22:35.357Z,18015
2017-09-26T11:23:05.416Z,24908
2017-09-26T11:23:36.314Z,24305
2017-09-26T11:24:06.356Z,32270
2017-09-26T11:24:37.205Z,20308
2017-09-26T11:25:07.275Z,21677
2017-09-26T11:25:38.107Z,31273
2017-09-26T11:26:08.118Z,25190
2017-09-26T11:26:38.993Z,20480
2017-09-26T11:27:09.103Z,21448
2017-09-26T11:27:39.947Z,26338
2017-09-26T11:28:09.977Z,25513
2017-09-26T11:28:40.835Z,21817
2017-09-26T11:29:10.868Z,22075
2017-09-26T11:29:41.785Z,23747
2017-09-26T11:30:11.801Z,25565
2017-09-26T11:30:42.676Z,32917
2017-09-26T11:31:12.717Z,25110
2017-09-26T11:31:43.591Z,25382
2017-09-26T11:32:13.640Z,24197
2017-09-26T11:32:44.499Z,25772
2017-09-26T11:33:14.564Z,22735
2017-09-26T11:33:45.418Z,22465
2017-09-26T11:34:15.483Z,22703
2017-09-26T11:34:46.325Z,23190
2017-09-26T11:35:16.328Z,29965
2017-09-26T11:35:47.266Z,25480
2017-09-26T11:36:17.255Z,29505
2017-09-26T11:36:48.178Z,29095
2017-09-26T11:37:18.255Z,26000
2017-09-26T11:37:49.092Z,32222
2017-09-26T11:38:19.161Z,22913
2017-09-26T11:38:49.984Z,18760
2017-09-26T11:39:20.048Z,20325
2017-09-26T11:39:50.928Z,32800
2017-09-26T11:40:20.947Z,25412
2017-09-26T11:40:51.844Z,23207
2017-09-26T11:41:21.882Z,30440
2017-09-26T11:41:52.725Z,27698
2017-09-26T11:42:22.826Z,21730
2017-09-26T11:42:53.679Z,15523
2017-09-26T11:43:23.749Z,15710
2017-09-26T11:43:54.595Z,17225
2017-09-26T11:44:24.665Z,29128
2017-09-26T11:44:55.492Z,23315
2017-09-26T11:45:25.534Z,18080
2017-09-26T11:45:56.493Z,15587
2017-09-26T11:46:26.461Z,15400
2017-09-26T11:46:57.378Z,16387
2017-09-26T11:47:27.388Z,25798
2017-09-26T11:47:58.280Z,32342
2017-09-26T11:48:28.279Z,33395
2017-09-26T11:48:59.165Z,18242
2017-09-26T11:49:29.174Z,20773
2017-09-26T11:50:00.125Z,32130
2017-09-26T11:50:30.084Z,31650